sensor_id;sensor_type;location;lat;lon;timestamp;temperature;humidity
17851;DHT22;9051;51.548;14.348;2022-07-18T00:02:12;13.90;99.90
17851;DHT22;9051;51.548;14.348;2022-07-18T00:04:46;14.00;99.90
17851;DHT22;9051;51.548;14.348;2022-07-18T00:07:18;14.00;99.90
17851;DHT22;9051;51.548;14.348;2022-07-18T00:09:50;13.90;99.90
17851;DHT22;9051;51.548;14.348;2022-07-18T00:12:23;13.80;99.90
17851;DHT22;9051;51.548;14.348;2022-07-18T00:14:55;13.70;99.90
17851;DHT22;9051;51.548;14.348;2022-07-18T00:17:27;13.70;99.90
17851;DHT22;9051;51.548;14.348;2022-07-18T00:20:01;13.70;99.90
17851;DHT22;9051;51.548;14.348;2022-07-18T00:22:33;13.80;99.90
17851;DHT22;9051;51.548;14.348;2022-07-18T00:25:06;13.80;99.90
17851;DHT22;9051;51.548;14.348;2022-07-18T00:27:39;13.80;99.90
17851;DHT22;9051;51.548;14.348;2022-07-18T00:30:11;13.90;99.90
17851;DHT22;9051;51.548;14.348;2022-07-18T00:32:43;13.90;99.90
17851;DHT22;9051;51.548;14.348;2022-07-18T00:35:17;14.00;99.90
17851;DHT22;9051;51.548;14.348;2022-07-18T00:37:51;14.00;99.90
17851;DHT22;9051;51.548;14.348;2022-07-18T00:40:24;13.90;99.90
17851;DHT22;9051;51.548;14.348;2022-07-18T00:42:56;13.80;99.90
17851;DHT22;9051;51.548;14.348;2022-07-18T00:45:29;13.60;99.90
17851;DHT22;9051;51.548;14.348;2022-07-18T00:48:05;13.50;99.90
17851;DHT22;9051;51.548;14.348;2022-07-18T00:50:40;13.40;99.90
17851;DHT22;9051;51.548;14.348;2022-07-18T00:53:13;13.40;99.90
17851;DHT22;9051;51.548;14.348;2022-07-18T00:55:45;13.40;99.90
17851;DHT22;9051;51.548;14.348;2022-07-18T00:58:19;13.40;99.90
17851;DHT22;9051;51.548;14.348;2022-07-18T01:00:51;13.40;99.90
17851;DHT22;9051;51.548;14.348;2022-07-18T01:03:40;13.40;99.90
17851;DHT22;9051;51.548;14.348;2022-07-18T01:06:15;13.40;99.90
17851;DHT22;9051;51.548;14.348;2022-07-18T01:08:47;13.40;99.90
17851;DHT22;9051;51.548;14.348;2022-07-18T01:11:19;13.40;99.90
17851;DHT22;9051;51.548;14.348;2022-07-18T01:13:53;13.30;99.90
17851;DHT22;9051;51.548;14.348;2022-07-18T01:16:26;13.30;99.90
17851;DHT22;9051;51.548;14.348;2022-07-18T01:18:58;13.20;99.90
17851;DHT22;9051;51.548;14.348;2022-07-18T01:21:33;13.10;99.90
17851;DHT22;9051;51.548;14.348;2022-07-18T01:24:05;13.20;99.90
17851;DHT22;9051;51.548;14.348;2022-07-18T01:26:38;13.10;99.90
17851;DHT22;9051;51.548;14.348;2022-07-18T01:29:10;13.10;99.90
17851;DHT22;9051;51.548;14.348;2022-07-18T01:31:43;13.00;99.90
17851;DHT22;9051;51.548;14.348;2022-07-18T01:34:21;13.00;99.90
17851;DHT22;9051;51.548;14.348;2022-07-18T01:36:56;13.00;99.90
17851;DHT22;9051;51.548;14.348;2022-07-18T01:39:30;12.90;99.90
17851;DHT22;9051;51.548;14.348;2022-07-18T01:42:05;12.90;99.90
17851;DHT22;9051;51.548;14.348;2022-07-18T01:44:38;12.90;99.90
17851;DHT22;9051;51.548;14.348;2022-07-18T01:47:11;13.00;99.90
17851;DHT22;9051;51.548;14.348;2022-07-18T01:49:43;13.10;99.90
17851;DHT22;9051;51.548;14.348;2022-07-18T01:52:18;13.10;99.90
17851;DHT22;9051;51.548;14.348;2022-07-18T01:54:50;13.20;99.90
17851;DHT22;9051;51.548;14.348;2022-07-18T01:57:23;13.30;99.90
17851;DHT22;9051;51.548;14.348;2022-07-18T01:59:55;13.30;99.90
17851;DHT22;9051;51.548;14.348;2022-07-18T02:02:29;13.40;99.90
17851;DHT22;9051;51.548;14.348;2022-07-18T02:05:01;13.40;99.90
17851;DHT22;9051;51.548;14.348;2022-07-18T02:07:37;13.50;99.90
17851;DHT22;9051;51.548;14.348;2022-07-18T02:10:13;13.50;99.90
17851;DHT22;9051;51.548;14.348;2022-07-18T02:12:45;13.50;99.90
17851;DHT22;9051;51.548;14.348;2022-07-18T02:15:18;13.50;99.90
17851;DHT22;9051;51.548;14.348;2022-07-18T02:17:51;13.30;99.90
17851;DHT22;9051;51.548;14.348;2022-07-18T02:20:23;13.20;99.90
17851;DHT22;9051;51.548;14.348;2022-07-18T02:22:57;13.20;99.90
17851;DHT22;9051;51.548;14.348;2022-07-18T02:25:29;13.10;99.90
17851;DHT22;9051;51.548;14.348;2022-07-18T02:28:01;13.10;99.90
17851;DHT22;9051;51.548;14.348;2022-07-18T02:30:33;13.20;99.90
17851;DHT22;9051;51.548;14.348;2022-07-18T02:33:06;13.20;99.90
17851;DHT22;9051;51.548;14.348;2022-07-18T02:35:38;13.30;99.90
17851;DHT22;9051;51.548;14.348;2022-07-18T02:38:12;13.30;99.90
17851;DHT22;9051;51.548;14.348;2022-07-18T02:40:44;13.40;99.90
17851;DHT22;9051;51.548;14.348;2022-07-18T02:43:18;13.40;99.90
17851;DHT22;9051;51.548;14.348;2022-07-18T02:45:52;13.40;99.90
17851;DHT22;9051;51.548;14.348;2022-07-18T02:48:24;13.40;99.90
17851;DHT22;9051;51.548;14.348;2022-07-18T02:50:57;13.50;99.90
17851;DHT22;9051;51.548;14.348;2022-07-18T02:53:31;13.50;99.90
17851;DHT22;9051;51.548;14.348;2022-07-18T02:56:04;13.40;99.90
17851;DHT22;9051;51.548;14.348;2022-07-18T02:58:36;13.30;99.90
17851;DHT22;9051;51.548;14.348;2022-07-18T03:01:09;13.30;99.90
17851;DHT22;9051;51.548;14.348;2022-07-18T03:03:41;13.30;99.90
17851;DHT22;9051;51.548;14.348;2022-07-18T03:06:13;13.20;99.90
17851;DHT22;9051;51.548;14.348;2022-07-18T03:08:47;13.20;99.90
17851;DHT22;9051;51.548;14.348;2022-07-18T03:11:19;13.20;99.90
17851;DHT22;9051;51.548;14.348;2022-07-18T03:13:51;13.20;99.90
17851;DHT22;9051;51.548;14.348;2022-07-18T03:16:24;13.20;99.90
17851;DHT22;9051;51.548;14.348;2022-07-18T03:18:56;13.20;99.90
17851;DHT22;9051;51.548;14.348;2022-07-18T03:21:29;13.20;99.90
17851;DHT22;9051;51.548;14.348;2022-07-18T03:24:04;13.20;99.90
17851;DHT22;9051;51.548;14.348;2022-07-18T03:26:37;13.10;99.90
17851;DHT22;9051;51.548;14.348;2022-07-18T03:29:09;13.10;99.90
17851;DHT22;9051;51.548;14.348;2022-07-18T03:31:41;12.90;99.90
17851;DHT22;9051;51.548;14.348;2022-07-18T03:34:13;12.70;99.90
17851;DHT22;9051;51.548;14.348;2022-07-18T03:36:45;12.60;99.90
17851;DHT22;9051;51.548;14.348;2022-07-18T03:39:21;12.60;99.90
17851;DHT22;9051;51.548;14.348;2022-07-18T03:41:54;12.50;99.90
17851;DHT22;9051;51.548;14.348;2022-07-18T03:44:27;12.50;99.90
17851;DHT22;9051;51.548;14.348;2022-07-18T03:46:59;12.50;99.90
17851;DHT22;9051;51.548;14.348;2022-07-18T03:49:32;12.50;99.90
17851;DHT22;9051;51.548;14.348;2022-07-18T03:52:05;12.50;99.90
17851;DHT22;9051;51.548;14.348;2022-07-18T03:54:38;12.60;99.90
17851;DHT22;9051;51.548;14.348;2022-07-18T03:57:11;12.50;99.90
17851;DHT22;9051;51.548;14.348;2022-07-18T03:59:43;12.70;99.90
17851;DHT22;9051;51.548;14.348;2022-07-18T04:02:17;12.70;99.90
17851;DHT22;9051;51.548;14.348;2022-07-18T04:04:49;12.80;99.90
17851;DHT22;9051;51.548;14.348;2022-07-18T04:07:21;12.80;99.90
17851;DHT22;9051;51.548;14.348;2022-07-18T04:09:54;12.80;99.90
17851;DHT22;9051;51.548;14.348;2022-07-18T04:12:27;12.90;99.90
17851;DHT22;9051;51.548;14.348;2022-07-18T04:15:00;12.90;99.90
17851;DHT22;9051;51.548;14.348;2022-07-18T04:17:34;12.90;99.90
17851;DHT22;9051;51.548;14.348;2022-07-18T04:20:07;12.80;99.90
17851;DHT22;9051;51.548;14.348;2022-07-18T04:22:47;12.80;99.90
17851;DHT22;9051;51.548;14.348;2022-07-18T04:25:24;12.90;99.90
17851;DHT22;9051;51.548;14.348;2022-07-18T04:27:57;12.90;99.90
17851;DHT22;9051;51.548;14.348;2022-07-18T04:30:29;12.90;99.90
17851;DHT22;9051;51.548;14.348;2022-07-18T04:33:03;12.90;99.90
17851;DHT22;9051;51.548;14.348;2022-07-18T04:35:38;12.80;99.90
17851;DHT22;9051;51.548;14.348;2022-07-18T04:38:12;12.80;99.90
17851;DHT22;9051;51.548;14.348;2022-07-18T04:40:46;12.90;99.90
17851;DHT22;9051;51.548;14.348;2022-07-18T04:43:19;13.00;99.90
17851;DHT22;9051;51.548;14.348;2022-07-18T04:45:51;13.10;99.90
17851;DHT22;9051;51.548;14.348;2022-07-18T04:48:24;13.20;99.90
17851;DHT22;9051;51.548;14.348;2022-07-18T04:50:56;13.30;99.90
17851;DHT22;9051;51.548;14.348;2022-07-18T04:53:29;13.30;99.90
17851;DHT22;9051;51.548;14.348;2022-07-18T04:56:02;13.40;99.90
17851;DHT22;9051;51.548;14.348;2022-07-18T04:58:36;13.50;99.90
17851;DHT22;9051;51.548;14.348;2022-07-18T05:01:08;13.50;99.90
17851;DHT22;9051;51.548;14.348;2022-07-18T05:03:42;13.60;99.90
17851;DHT22;9051;51.548;14.348;2022-07-18T05:06:14;13.70;99.90
17851;DHT22;9051;51.548;14.348;2022-07-18T05:08:47;13.80;99.90
17851;DHT22;9051;51.548;14.348;2022-07-18T05:11:21;13.80;99.90
17851;DHT22;9051;51.548;14.348;2022-07-18T05:13:53;13.90;99.90
17851;DHT22;9051;51.548;14.348;2022-07-18T05:16:25;13.90;99.90
17851;DHT22;9051;51.548;14.348;2022-07-18T05:18:57;14.10;99.90
17851;DHT22;9051;51.548;14.348;2022-07-18T05:21:30;14.10;99.90
17851;DHT22;9051;51.548;14.348;2022-07-18T05:24:02;14.20;99.90
17851;DHT22;9051;51.548;14.348;2022-07-18T05:26:36;14.30;99.90
17851;DHT22;9051;51.548;14.348;2022-07-18T05:29:09;14.40;99.90
17851;DHT22;9051;51.548;14.348;2022-07-18T05:31:43;14.50;99.90
17851;DHT22;9051;51.548;14.348;2022-07-18T05:34:17;14.50;99.90
17851;DHT22;9051;51.548;14.348;2022-07-18T05:36:50;14.70;99.90
17851;DHT22;9051;51.548;14.348;2022-07-18T05:39:22;14.90;99.90
17851;DHT22;9051;51.548;14.348;2022-07-18T05:41:56;15.00;99.90
17851;DHT22;9051;51.548;14.348;2022-07-18T05:44:28;15.10;99.90
17851;DHT22;9051;51.548;14.348;2022-07-18T05:47:00;15.20;99.90
17851;DHT22;9051;51.548;14.348;2022-07-18T05:49:34;15.30;99.90
17851;DHT22;9051;51.548;14.348;2022-07-18T05:52:07;15.40;99.90
17851;DHT22;9051;51.548;14.348;2022-07-18T05:54:40;15.60;99.90
17851;DHT22;9051;51.548;14.348;2022-07-18T05:57:14;15.70;99.90
17851;DHT22;9051;51.548;14.348;2022-07-18T05:59:46;15.80;99.90
17851;DHT22;9051;51.548;14.348;2022-07-18T06:02:18;16.00;99.90
17851;DHT22;9051;51.548;14.348;2022-07-18T06:04:50;16.20;99.90
17851;DHT22;9051;51.548;14.348;2022-07-18T06:07:22;16.40;99.90
17851;DHT22;9051;51.548;14.348;2022-07-18T06:09:55;16.60;99.90
17851;DHT22;9051;51.548;14.348;2022-07-18T06:12:31;16.70;99.90
17851;DHT22;9051;51.548;14.348;2022-07-18T06:15:04;16.70;99.90
17851;DHT22;9051;51.548;14.348;2022-07-18T06:17:38;16.80;99.90
17851;DHT22;9051;51.548;14.348;2022-07-18T06:20:10;16.90;99.90
17851;DHT22;9051;51.548;14.348;2022-07-18T06:22:43;17.00;99.90
17851;DHT22;9051;51.548;14.348;2022-07-18T06:25:15;17.20;99.90
17851;DHT22;9051;51.548;14.348;2022-07-18T06:27:49;17.40;99.90
17851;DHT22;9051;51.548;14.348;2022-07-18T06:30:22;17.50;99.90
17851;DHT22;9051;51.548;14.348;2022-07-18T06:32:54;17.60;99.90
17851;DHT22;9051;51.548;14.348;2022-07-18T06:35:27;17.80;99.90
17851;DHT22;9051;51.548;14.348;2022-07-18T06:37:59;17.90;99.90
17851;DHT22;9051;51.548;14.348;2022-07-18T06:40:32;18.00;99.90
17851;DHT22;9051;51.548;14.348;2022-07-18T06:43:06;18.00;99.90
17851;DHT22;9051;51.548;14.348;2022-07-18T06:45:39;18.10;99.90
17851;DHT22;9051;51.548;14.348;2022-07-18T06:48:12;18.10;99.90
17851;DHT22;9051;51.548;14.348;2022-07-18T06:50:45;18.30;99.90
17851;DHT22;9051;51.548;14.348;2022-07-18T06:53:17;18.40;99.90
17851;DHT22;9051;51.548;14.348;2022-07-18T06:55:49;18.60;99.90
17851;DHT22;9051;51.548;14.348;2022-07-18T06:58:23;18.70;99.90
17851;DHT22;9051;51.548;14.348;2022-07-18T07:00:55;18.90;99.90
17851;DHT22;9051;51.548;14.348;2022-07-18T07:03:27;19.10;99.90
17851;DHT22;9051;51.548;14.348;2022-07-18T07:05:59;19.30;99.90
17851;DHT22;9051;51.548;14.348;2022-07-18T07:08:31;19.50;99.90
17851;DHT22;9051;51.548;14.348;2022-07-18T07:11:03;19.60;99.90
17851;DHT22;9051;51.548;14.348;2022-07-18T07:13:38;19.70;99.90
17851;DHT22;9051;51.548;14.348;2022-07-18T07:16:10;19.90;99.90
17851;DHT22;9051;51.548;14.348;2022-07-18T07:18:42;20.00;99.90
17851;DHT22;9051;51.548;14.348;2022-07-18T07:21:14;20.10;99.90
17851;DHT22;9051;51.548;14.348;2022-07-18T07:23:46;20.30;99.90
17851;DHT22;9051;51.548;14.348;2022-07-18T07:26:19;20.40;99.90
17851;DHT22;9051;51.548;14.348;2022-07-18T07:28:52;20.50;99.90
17851;DHT22;9051;51.548;14.348;2022-07-18T07:31:25;20.60;99.90
17851;DHT22;9051;51.548;14.348;2022-07-18T07:33:57;20.70;99.90
17851;DHT22;9051;51.548;14.348;2022-07-18T07:36:30;20.80;99.90
17851;DHT22;9051;51.548;14.348;2022-07-18T07:39:02;20.90;99.90
17851;DHT22;9051;51.548;14.348;2022-07-18T07:41:35;21.00;99.90
17851;DHT22;9051;51.548;14.348;2022-07-18T07:44:08;21.10;99.90
17851;DHT22;9051;51.548;14.348;2022-07-18T07:46:40;21.20;99.90
17851;DHT22;9051;51.548;14.348;2022-07-18T07:49:12;21.30;99.90
17851;DHT22;9051;51.548;14.348;2022-07-18T07:51:44;21.50;99.90
17851;DHT22;9051;51.548;14.348;2022-07-18T07:54:17;21.70;99.90
17851;DHT22;9051;51.548;14.348;2022-07-18T07:56:49;21.70;99.90
17851;DHT22;9051;51.548;14.348;2022-07-18T07:59:23;21.80;99.90
17851;DHT22;9051;51.548;14.348;2022-07-18T08:01:55;21.90;99.90
17851;DHT22;9051;51.548;14.348;2022-07-18T08:04:27;22.00;99.90
17851;DHT22;9051;51.548;14.348;2022-07-18T08:06:59;22.10;99.90
17851;DHT22;9051;51.548;14.348;2022-07-18T08:09:32;22.10;99.90
17851;DHT22;9051;51.548;14.348;2022-07-18T08:12:05;22.20;99.90
17851;DHT22;9051;51.548;14.348;2022-07-18T08:14:39;22.30;99.90
17851;DHT22;9051;51.548;14.348;2022-07-18T08:17:13;22.40;99.90
17851;DHT22;9051;51.548;14.348;2022-07-18T08:19:45;22.50;99.90
17851;DHT22;9051;51.548;14.348;2022-07-18T08:22:17;22.60;99.90
17851;DHT22;9051;51.548;14.348;2022-07-18T08:24:50;22.60;99.90
17851;DHT22;9051;51.548;14.348;2022-07-18T08:27:22;22.60;99.90
17851;DHT22;9051;51.548;14.348;2022-07-18T08:29:56;22.70;99.90
17851;DHT22;9051;51.548;14.348;2022-07-18T08:32:29;22.80;99.90
17851;DHT22;9051;51.548;14.348;2022-07-18T08:35:01;22.80;99.90
17851;DHT22;9051;51.548;14.348;2022-07-18T08:37:35;22.80;99.90
17851;DHT22;9051;51.548;14.348;2022-07-18T08:40:08;22.90;99.90
17851;DHT22;9051;51.548;14.348;2022-07-18T08:42:42;23.10;99.90
17851;DHT22;9051;51.548;14.348;2022-07-18T08:45:15;23.10;99.90
17851;DHT22;9051;51.548;14.348;2022-07-18T08:47:49;23.20;99.90
17851;DHT22;9051;51.548;14.348;2022-07-18T08:50:22;23.30;99.90
17851;DHT22;9051;51.548;14.348;2022-07-18T08:52:55;23.30;99.90
17851;DHT22;9051;51.548;14.348;2022-07-18T08:55:28;23.50;99.90
17851;DHT22;9051;51.548;14.348;2022-07-18T08:58:01;23.60;99.90
17851;DHT22;9051;51.548;14.348;2022-07-18T09:00:36;23.70;99.90
17851;DHT22;9051;51.548;14.348;2022-07-18T09:03:08;23.80;99.90
17851;DHT22;9051;51.548;14.348;2022-07-18T09:05:41;23.90;99.90
17851;DHT22;9051;51.548;14.348;2022-07-18T09:14:44;24.00;99.90
17851;DHT22;9051;51.548;14.348;2022-07-18T09:17:19;24.00;99.90
17851;DHT22;9051;51.548;14.348;2022-07-18T09:19:59;23.90;99.90
17851;DHT22;9051;51.548;14.348;2022-07-18T09:22:33;23.90;99.90
17851;DHT22;9051;51.548;14.348;2022-07-18T09:25:07;24.00;99.90
17851;DHT22;9051;51.548;14.348;2022-07-18T09:27:40;24.20;99.90
17851;DHT22;9051;51.548;14.348;2022-07-18T09:30:21;24.30;99.90
17851;DHT22;9051;51.548;14.348;2022-07-18T09:33:06;24.40;99.90
17851;DHT22;9051;51.548;14.348;2022-07-18T09:35:43;24.40;99.90
17851;DHT22;9051;51.548;14.348;2022-07-18T09:38:16;24.40;99.90
17851;DHT22;9051;51.548;14.348;2022-07-18T09:40:50;24.60;99.90
17851;DHT22;9051;51.548;14.348;2022-07-18T09:43:23;24.90;99.90
17851;DHT22;9051;51.548;14.348;2022-07-18T09:45:55;24.90;99.90
17851;DHT22;9051;51.548;14.348;2022-07-18T09:48:29;25.00;99.90
17851;DHT22;9051;51.548;14.348;2022-07-18T09:51:02;25.10;99.90
17851;DHT22;9051;51.548;14.348;2022-07-18T09:53:36;25.10;99.90
17851;DHT22;9051;51.548;14.348;2022-07-18T09:56:08;25.10;99.90
17851;DHT22;9051;51.548;14.348;2022-07-18T09:58:48;25.20;99.90
17851;DHT22;9051;51.548;14.348;2022-07-18T10:01:21;25.10;99.90
17851;DHT22;9051;51.548;14.348;2022-07-18T10:03:55;25.10;99.90
17851;DHT22;9051;51.548;14.348;2022-07-18T10:06:28;25.10;99.90
17851;DHT22;9051;51.548;14.348;2022-07-18T10:09:00;25.20;99.90
17851;DHT22;9051;51.548;14.348;2022-07-18T10:11:32;25.40;99.90
17851;DHT22;9051;51.548;14.348;2022-07-18T10:14:05;25.40;99.90
17851;DHT22;9051;51.548;14.348;2022-07-18T10:16:38;25.40;99.90
17851;DHT22;9051;51.548;14.348;2022-07-18T10:19:11;25.50;99.90
17851;DHT22;9051;51.548;14.348;2022-07-18T10:21:46;25.60;99.90
17851;DHT22;9051;51.548;14.348;2022-07-18T10:24:19;25.70;99.90
17851;DHT22;9051;51.548;14.348;2022-07-18T10:27:13;25.80;99.90
17851;DHT22;9051;51.548;14.348;2022-07-18T10:30:07;25.60;99.90
17851;DHT22;9051;51.548;14.348;2022-07-18T10:32:40;25.50;99.90
17851;DHT22;9051;51.548;14.348;2022-07-18T10:35:16;25.50;99.90
17851;DHT22;9051;51.548;14.348;2022-07-18T10:37:48;25.60;99.90
17851;DHT22;9051;51.548;14.348;2022-07-18T10:40:25;25.80;99.90
17851;DHT22;9051;51.548;14.348;2022-07-18T10:43:36;25.80;99.90
17851;DHT22;9051;51.548;14.348;2022-07-18T10:46:10;25.80;99.90
17851;DHT22;9051;51.548;14.348;2022-07-18T10:48:56;26.00;99.90
17851;DHT22;9051;51.548;14.348;2022-07-18T10:51:34;26.10;99.90
17851;DHT22;9051;51.548;14.348;2022-07-18T10:54:08;26.20;99.90
17851;DHT22;9051;51.548;14.348;2022-07-18T10:57:06;26.30;99.90
17851;DHT22;9051;51.548;14.348;2022-07-18T11:02:32;26.20;99.90
17851;DHT22;9051;51.548;14.348;2022-07-18T11:05:30;26.20;99.90
17851;DHT22;9051;51.548;14.348;2022-07-18T11:08:18;26.20;99.90
17851;DHT22;9051;51.548;14.348;2022-07-18T11:11:11;26.30;99.90
17851;DHT22;9051;51.548;14.348;2022-07-18T11:13:47;26.40;99.90
17851;DHT22;9051;51.548;14.348;2022-07-18T11:16:22;26.50;99.90
17851;DHT22;9051;51.548;14.348;2022-07-18T11:19:18;26.60;99.90
17851;DHT22;9051;51.548;14.348;2022-07-18T11:21:58;26.70;99.90
17851;DHT22;9051;51.548;14.348;2022-07-18T11:24:31;26.80;99.90
17851;DHT22;9051;51.548;14.348;2022-07-18T11:27:05;26.90;99.90
17851;DHT22;9051;51.548;14.348;2022-07-18T11:29:41;27.10;99.90
17851;DHT22;9051;51.548;14.348;2022-07-18T11:32:20;27.30;99.90
17851;DHT22;9051;51.548;14.348;2022-07-18T11:34:52;27.40;99.90
17851;DHT22;9051;51.548;14.348;2022-07-18T11:37:24;27.40;99.90
17851;DHT22;9051;51.548;14.348;2022-07-18T11:40:04;27.40;99.90
17851;DHT22;9051;51.548;14.348;2022-07-18T11:42:37;27.20;99.90
17851;DHT22;9051;51.548;14.348;2022-07-18T11:45:11;27.10;99.90
17851;DHT22;9051;51.548;14.348;2022-07-18T11:47:50;27.20;99.90
17851;DHT22;9051;51.548;14.348;2022-07-18T11:50:34;27.40;99.90
17851;DHT22;9051;51.548;14.348;2022-07-18T11:53:07;27.50;99.90
17851;DHT22;9051;51.548;14.348;2022-07-18T11:55:42;27.50;99.90
17851;DHT22;9051;51.548;14.348;2022-07-18T11:58:14;27.60;99.90
17851;DHT22;9051;51.548;14.348;2022-07-18T12:00:47;27.80;99.90
17851;DHT22;9051;51.548;14.348;2022-07-18T12:03:21;27.90;99.90
17851;DHT22;9051;51.548;14.348;2022-07-18T12:05:54;27.90;99.90
17851;DHT22;9051;51.548;14.348;2022-07-18T12:08:27;28.00;99.90
17851;DHT22;9051;51.548;14.348;2022-07-18T12:11:09;27.90;99.90
17851;DHT22;9051;51.548;14.348;2022-07-18T12:13:49;27.80;99.90
17851;DHT22;9051;51.548;14.348;2022-07-18T12:16:33;27.90;99.90
17851;DHT22;9051;51.548;14.348;2022-07-18T12:19:07;28.10;99.90
17851;DHT22;9051;51.548;14.348;2022-07-18T12:21:44;28.10;99.90
17851;DHT22;9051;51.548;14.348;2022-07-18T12:24:26;27.90;99.90
17851;DHT22;9051;51.548;14.348;2022-07-18T12:27:33;28.00;99.90
17851;DHT22;9051;51.548;14.348;2022-07-18T12:30:08;28.10;99.90
17851;DHT22;9051;51.548;14.348;2022-07-18T12:32:46;28.20;99.90
17851;DHT22;9051;51.548;14.348;2022-07-18T12:35:22;28.30;99.90
17851;DHT22;9051;51.548;14.348;2022-07-18T12:37:57;28.20;99.90
17851;DHT22;9051;51.548;14.348;2022-07-18T12:40:40;28.10;99.90
17851;DHT22;9051;51.548;14.348;2022-07-18T12:43:14;28.20;99.90
17851;DHT22;9051;51.548;14.348;2022-07-18T12:45:47;28.20;99.90
17851;DHT22;9051;51.548;14.348;2022-07-18T12:48:19;28.30;99.90
17851;DHT22;9051;51.548;14.348;2022-07-18T12:50:58;28.30;99.90
17851;DHT22;9051;51.548;14.348;2022-07-18T12:53:34;28.40;99.90
17851;DHT22;9051;51.548;14.348;2022-07-18T12:56:06;28.50;99.90
17851;DHT22;9051;51.548;14.348;2022-07-18T12:58:40;28.70;99.90
17851;DHT22;9051;51.548;14.348;2022-07-18T13:01:12;28.70;99.90
17851;DHT22;9051;51.548;14.348;2022-07-18T13:03:44;28.80;99.90
17851;DHT22;9051;51.548;14.348;2022-07-18T13:06:16;29.00;99.90
17851;DHT22;9051;51.548;14.348;2022-07-18T13:08:48;29.10;99.90
17851;DHT22;9051;51.548;14.348;2022-07-18T13:11:21;29.10;99.90
17851;DHT22;9051;51.548;14.348;2022-07-18T13:13:54;29.10;99.90
17851;DHT22;9051;51.548;14.348;2022-07-18T13:16:29;29.10;99.90
17851;DHT22;9051;51.548;14.348;2022-07-18T13:19:01;29.10;99.90
17851;DHT22;9051;51.548;14.348;2022-07-18T13:21:33;29.10;99.90
17851;DHT22;9051;51.548;14.348;2022-07-18T13:24:06;29.00;99.90
17851;DHT22;9051;51.548;14.348;2022-07-18T13:26:38;28.90;99.90
17851;DHT22;9051;51.548;14.348;2022-07-18T13:29:12;28.90;99.90
17851;DHT22;9051;51.548;14.348;2022-07-18T13:31:44;28.70;99.90
17851;DHT22;9051;51.548;14.348;2022-07-18T13:34:17;28.60;99.90
17851;DHT22;9051;51.548;14.348;2022-07-18T13:36:53;28.70;99.90
17851;DHT22;9051;51.548;14.348;2022-07-18T13:39:27;28.80;99.90
17851;DHT22;9051;51.548;14.348;2022-07-18T13:41:59;28.60;99.90
17851;DHT22;9051;51.548;14.348;2022-07-18T13:44:34;28.60;99.90
17851;DHT22;9051;51.548;14.348;2022-07-18T13:47:06;28.70;99.90
17851;DHT22;9051;51.548;14.348;2022-07-18T13:49:38;28.70;99.90
17851;DHT22;9051;51.548;14.348;2022-07-18T13:52:11;28.90;99.90
17851;DHT22;9051;51.548;14.348;2022-07-18T13:54:43;28.90;99.90
17851;DHT22;9051;51.548;14.348;2022-07-18T13:57:16;28.70;99.90
17851;DHT22;9051;51.548;14.348;2022-07-18T13:59:51;28.80;99.90
17851;DHT22;9051;51.548;14.348;2022-07-18T14:02:23;28.90;99.90
17851;DHT22;9051;51.548;14.348;2022-07-18T14:04:55;28.80;99.90
17851;DHT22;9051;51.548;14.348;2022-07-18T14:07:27;28.90;99.90
17851;DHT22;9051;51.548;14.348;2022-07-18T14:09:59;29.00;99.90
17851;DHT22;9051;51.548;14.348;2022-07-18T14:12:31;28.80;99.90
17851;DHT22;9051;51.548;14.348;2022-07-18T14:15:06;28.60;99.90
17851;DHT22;9051;51.548;14.348;2022-07-18T14:17:39;28.50;99.90
17851;DHT22;9051;51.548;14.348;2022-07-18T14:20:12;28.50;99.90
17851;DHT22;9051;51.548;14.348;2022-07-18T14:22:45;28.50;99.90
17851;DHT22;9051;51.548;14.348;2022-07-18T14:25:18;28.60;99.90
17851;DHT22;9051;51.548;14.348;2022-07-18T14:27:50;28.60;99.90
17851;DHT22;9051;51.548;14.348;2022-07-18T14:30:23;28.50;99.90
17851;DHT22;9051;51.548;14.348;2022-07-18T14:32:55;28.30;99.90
17851;DHT22;9051;51.548;14.348;2022-07-18T14:35:29;28.50;99.90
17851;DHT22;9051;51.548;14.348;2022-07-18T14:38:01;28.70;99.90
17851;DHT22;9051;51.548;14.348;2022-07-18T14:40:33;28.90;99.90
17851;DHT22;9051;51.548;14.348;2022-07-18T14:43:05;28.90;99.90
17851;DHT22;9051;51.548;14.348;2022-07-18T14:45:41;29.00;99.90
17851;DHT22;9051;51.548;14.348;2022-07-18T14:48:13;29.00;99.90
17851;DHT22;9051;51.548;14.348;2022-07-18T14:50:45;29.00;99.90
17851;DHT22;9051;51.548;14.348;2022-07-18T14:53:17;29.00;99.90
17851;DHT22;9051;51.548;14.348;2022-07-18T14:55:49;29.00;99.90
17851;DHT22;9051;51.548;14.348;2022-07-18T14:58:21;28.80;99.90
17851;DHT22;9051;51.548;14.348;2022-07-18T15:00:54;28.60;99.90
17851;DHT22;9051;51.548;14.348;2022-07-18T15:03:26;28.50;99.90
17851;DHT22;9051;51.548;14.348;2022-07-18T15:05:58;28.50;99.90
17851;DHT22;9051;51.548;14.348;2022-07-18T15:08:30;28.50;99.90
17851;DHT22;9051;51.548;14.348;2022-07-18T15:11:04;28.50;99.90
17851;DHT22;9051;51.548;14.348;2022-07-18T15:13:36;28.50;99.90
17851;DHT22;9051;51.548;14.348;2022-07-18T15:16:10;28.60;99.90
17851;DHT22;9051;51.548;14.348;2022-07-18T15:18:42;28.60;99.90
17851;DHT22;9051;51.548;14.348;2022-07-18T15:21:14;28.60;99.90
17851;DHT22;9051;51.548;14.348;2022-07-18T15:23:46;28.40;99.90
17851;DHT22;9051;51.548;14.348;2022-07-18T15:26:18;28.20;99.90
17851;DHT22;9051;51.548;14.348;2022-07-18T15:28:50;28.20;99.90
17851;DHT22;9051;51.548;14.348;2022-07-18T15:31:24;28.30;99.90
17851;DHT22;9051;51.548;14.348;2022-07-18T15:33:56;28.30;99.90
17851;DHT22;9051;51.548;14.348;2022-07-18T15:36:29;28.40;99.90
17851;DHT22;9051;51.548;14.348;2022-07-18T15:39:01;28.40;99.90
17851;DHT22;9051;51.548;14.348;2022-07-18T15:41:33;28.30;99.90
17851;DHT22;9051;51.548;14.348;2022-07-18T15:44:08;28.30;99.90
17851;DHT22;9051;51.548;14.348;2022-07-18T15:46:42;28.50;99.90
17851;DHT22;9051;51.548;14.348;2022-07-18T15:49:14;28.60;99.90
17851;DHT22;9051;51.548;14.348;2022-07-18T15:51:47;28.60;99.90
17851;DHT22;9051;51.548;14.348;2022-07-18T15:54:19;28.50;99.90
17851;DHT22;9051;51.548;14.348;2022-07-18T15:56:51;28.50;99.90
17851;DHT22;9051;51.548;14.348;2022-07-18T15:59:23;28.30;99.90
17851;DHT22;9051;51.548;14.348;2022-07-18T16:01:57;28.10;99.90
17851;DHT22;9051;51.548;14.348;2022-07-18T16:04:29;28.20;99.90
17851;DHT22;9051;51.548;14.348;2022-07-18T16:07:02;28.20;99.90
17851;DHT22;9051;51.548;14.348;2022-07-18T16:09:35;28.30;99.90
17851;DHT22;9051;51.548;14.348;2022-07-18T16:12:09;28.40;99.90
17851;DHT22;9051;51.548;14.348;2022-07-18T16:14:41;28.50;99.90
17851;DHT22;9051;51.548;14.348;2022-07-18T16:17:14;28.70;99.90
17851;DHT22;9051;51.548;14.348;2022-07-18T16:19:46;28.60;99.90
17851;DHT22;9051;51.548;14.348;2022-07-18T16:22:18;28.60;99.90